International Virtual Aviation Organisation

Russian Federation and Kazakhstan MCD

 

Карточка аэропорта UNNT

Внимание!
Информация на этой странице в стадии наполнения.
Если вы не увидели какой-то информации, или заметили неточность - пожалуйста сообщите нам!
Спасибо!
Команда RU-STAFF
Название аэропортаТолмачево
Название аэропорта (англ.)Tolmachevo
Превышение367 ft. (111.9 m.)
Координаты55°0.77999999999989', 82°38.178'
Высота перехода1300m
Эшелон переходаFL060
Коды ответчика5201-5277
Зона ОрВДНовосибирск РПИ (UNNT)
Данные METARUNNT 041100Z 20002MPS 9999 NSC M18/M21 Q1034 R25/490150 R16/490240 NOSIG RMK QFE765/1020
Проноз погоды (TAF)UNNT 040800Z 0409/0509 20003MPS 6000 -SN BKN008 TEMPO 0409/0412 3000 -SN BR BKN005 BECMG 0412/0415 BKN016 TEMPO 0415/0506 1500 -SN BR BKN002
NOTAMshow/hide NOTAM
AWOS   TABLE

Информация о ВПП

ВПП Длина ВПП (м.) Покрытие Курс ВПП Частота ILS
073597Асфальтобетон72110.1
253597Асфальтобетон252108.5
163602Цементобетон161109.7
343602Цементобетон341111.1

Диспетчерские позиции

Позывной Наименование органа УВД Частота
UNNT_APPНовосибирск Подход127.5
UNNT_GNDНовосибирск Руление121.7
UNNT_R_APPНовосибирск Круг122.0
UNNT_TWRНовосибирск Вышка118.5



Спутниковое изображение